ENW weather

Palo Blanco Airstrip
La Purísima, Baja California Sur, Mexico

Public forecast

Using degrees Celsius for public forecast. Weather courtesy of forecast.io.

Closest aviation weather report (METAR) to Palo Blanco Airstrip

Closest report is Loreto International Airport, 42.0 nm (77.8 km) ESE. Retrieved 2020/07/04 15:54 UTC (9 minutes ago):

MMLT 041554Z 00000KT 10SM SCT150 BKN240 31/21 A2986 RMK 8/032

Closest aviation forecast (TAF) to Palo Blanco Airstrip

Forecast is more than 6 hours old.

Closest forecast is Loreto International Airport, 42.0 nm (77.8 km) ESE. Retrieved 2020/07/04 06:48 UTC (9 hours ago):

TAF MMLT 040444Z 0406/0506 06005KT P6SM SKC FM041600 04010KT P6SM SCT250 FM050300 03005KT P6SM SCT250